CheckWX is a tool to help pilots better visualize weather data.  It is not intended as a substitute for an official pre-flight weather briefing.

21:01:04 UTC

KGKJ METAR
Port Meadville Airport
Meadville, Pennsylvania, USA
Current

8 mins ago

KGKJ 202053Z AUTO 31008KT 10SM FEW025 14/08 A2958 RMK AO2 SLP019 T01440078 53001 TSNO
Observed
Apr-20 @ 20:53 UTC
Wind
  • 310° at 8 KTS
Visibility
10 SM
Flight Rules
VFR
Cloud Levels
  • Few at 2,500' AGL
Temperature
14°C / 57°F
Dewpoint
C / 46°F
Humidity
67%
Altimeter
29.58" Hg
Pressure
1001.72 hPa
Previous

1 hour ago

KGKJ 201953Z AUTO 29011KT 10SM FEW024 14/08 A2957 RMK AO2 SLP015 T01440083 TSNO
Observed
Apr-20 @ 19:53 UTC
Wind
  • 290° at 11 KTS
Visibility
10 SM
Flight Rules
VFR
Cloud Levels
  • Few at 2,400' AGL
Temperature
14°C / 57°F
Dewpoint
C / 46°F
Humidity
67%
Altimeter
29.57" Hg
Pressure
1001.32 hPa
Previous

2 hours ago

KGKJ 201853Z AUTO 25007G16KT 10SM SCT023 14/09 A2958 RMK AO2 SLP018 T01390089 TSNO
Observed
Apr-20 @ 18:53 UTC
Wind
  • 250° at 7 KTS
  • Gusting to 16 KTS
Visibility
10 SM
Flight Rules
VFR
Cloud Levels
  • Scattered at 2,300' AGL
Temperature
14°C / 57°F
Dewpoint
C / 48°F
Humidity
72%
Altimeter
29.58" Hg
Pressure
1001.72 hPa